Time;durP1;ratioP1;P1;durP2;ratioP2;P2;SDS_P1;SDS_P2;PMS_P1;PMS_P2;Temp;Humidity;BMP_temperature;BMP_pressure;BME280_temperature;BME280_humidity;BME280_pressure;Samples;Min_cycle;Max_cycle;Signal;HPM_P1;HPM_P2
2022/09/18 05:02:13;;;;;;;3.47;0.75;;;10.10;99.90;;;;;;6108846;23;20306;-77
2022/09/18 05:04:39;;;;;;;2.33;0.68;;;10.10;99.90;;;;;;6169138;23;20028;-75
2022/09/18 05:07:22;;;;;;;3.53;0.60;;;10.10;99.90;;;;;;6168760;23;20020;-76
2022/09/18 05:09:48;;;;;;;3.05;0.77;;;10.10;99.90;;;;;;6169395;23;20001;-76
2022/09/18 05:12:14;;;;;;;3.13;0.80;;;10.10;99.90;;;;;;6168967;23;20001;-76
2022/09/18 05:14:40;;;;;;;3.10;0.80;;;10.10;99.90;;;;;;6195792;23;20008;-76
2022/09/18 05:17:08;;;;;;;3.40;1.10;;;10.10;99.90;;;;;;6168376;23;20043;-77
2022/09/18 05:19:37;;;;;;;;;;;10.10;99.90;;;;;;6145636;23;20533;-76
2022/09/18 05:22:11;;;;;;;2.25;0.65;;;10.20;99.90;;;;;;6145938;23;19911;-76
2022/09/18 05:24:41;;;;;;;3.47;1.02;;;10.20;99.90;;;;;;6169211;23;20059;-75
2022/09/18 05:27:07;;;;;;;6.70;0.90;;;10.20;99.90;;;;;;6168394;23;20004;-75
2022/09/18 05:29:34;;;;;;;2.50;0.90;;;10.20;99.90;;;;;;6169189;23;20011;-75
2022/09/18 05:32:08;;;;;;;3.63;0.80;;;10.20;99.90;;;;;;6168802;23;20005;-75
2022/09/18 05:34:35;;;;;;;3.97;1.00;;;10.20;99.90;;;;;;6169226;23;20290;-73
2022/09/18 05:37:01;;;;;;;3.17;0.80;;;10.20;99.90;;;;;;6169052;23;20001;-74
2022/09/18 05:39:27;;;;;;;2.50;0.80;;;10.30;99.90;;;;;;6168066;23;20001;-74
2022/09/18 05:41:56;;;;;;;2.63;0.75;;;10.30;99.90;;;;;;6168935;23;20032;-74
2022/09/18 05:44:22;;;;;;;3.67;1.52;;;10.20;99.90;;;;;;6168312;23;19997;-75
2022/09/18 05:46:49;;;;;;;3.35;1.20;;;10.30;99.90;;;;;;6168992;23;20005;-72
2022/09/18 05:49:15;;;;;;;5.75;1.33;;;10.20;99.90;;;;;;6167872;23;20012;-74
2022/09/18 05:51:41;;;;;;;4.22;1.05;;;10.20;99.90;;;;;;6169045;23;20020;-74
2022/09/18 05:54:07;;;;;;;3.33;1.10;;;10.20;99.90;;;;;;6194407;23;20056;-74
2022/09/18 05:56:39;;;;;;;2.90;1.13;;;10.20;99.90;;;;;;6169141;23;20012;-74
2022/09/18 05:59:05;;;;;;;2.78;1.00;;;10.20;99.90;;;;;;6168285;23;20008;-76
2022/09/18 06:01:31;;;;;;;2.10;0.85;;;10.20;99.90;;;;;;6166132;23;20012;-75
2022/09/18 06:04:21;;;;;;;3.60;0.90;;;10.20;99.90;;;;;;6168514;23;20008;-72
2022/09/18 06:06:51;;;;;;;3.38;0.93;;;10.20;99.90;;;;;;6168828;23;20009;-74
2022/09/18 06:09:17;;;;;;;2.45;1.10;;;10.30;99.90;;;;;;6168156;23;20020;-72
2022/09/18 06:11:43;;;;;;;5.13;1.10;;;10.30;99.90;;;;;;6144082;23;20012;-75
2022/09/18 06:14:09;;;;;;;3.28;1.05;;;10.30;99.90;;;;;;6168343;23;20036;-74
2022/09/18 06:16:34;;;;;;;2.80;0.98;;;10.40;99.90;;;;;;6168103;23;20318;-74
2022/09/18 06:19:04;;;;;;;2.70;0.85;;;10.40;99.90;;;;;;6168192;23;20050;-74
2022/09/18 06:21:30;;;;;;;3.75;1.08;;;10.40;99.90;;;;;;6193833;23;20186;-74
2022/09/18 06:23:57;;;;;;;2.92;0.82;;;10.40;99.90;;;;;;6144346;23;20068;-74
2022/09/18 06:26:30;;;;;;;2.40;0.95;;;10.40;99.90;;;;;;6193188;23;20271;-73
2022/09/18 06:28:55;;;;;;;3.72;0.90;;;10.40;99.90;;;;;;6144051;23;20020;-73
2022/09/18 06:31:21;;;;;;;2.92;1.00;;;10.40;99.90;;;;;;6196039;23;19996;-73
2022/09/18 06:33:56;;;;;;;2.65;0.90;;;10.30;99.90;;;;;;6176018;23;20168;-73
2022/09/18 06:36:22;;;;;;;3.75;1.00;;;10.30;99.90;;;;;;6175260;23;20016;-75
2022/09/18 06:39:07;;;;;;;2.90;0.93;;;10.30;99.90;;;;;;6201147;23;20059;-76
2022/09/18 06:41:33;;;;;;;2.38;1.10;;;10.30;99.90;;;;;;6169619;23;20016;-73
2022/09/18 06:44:03;;;;;;;2.53;0.90;;;10.30;99.90;;;;;;6168506;23;20055;-75
2022/09/18 06:46:36;;;;;;;4.72;1.17;;;10.40;99.90;;;;;;6168440;23;20247;-73
2022/09/18 06:49:21;;;;;;;4.13;1.10;;;10.40;99.90;;;;;;6167877;23;20011;-74
2022/09/18 06:51:47;;;;;;;3.03;1.10;;;10.40;99.90;;;;;;6168472;23;20009;-74
2022/09/18 06:54:15;;;;;;;3.03;1.27;;;10.50;99.90;;;;;;6168220;23;19997;-74
2022/09/18 06:56:41;;;;;;;3.05;1.02;;;10.60;99.90;;;;;;6143963;23;20012;-74
2022/09/18 06:59:10;;;;;;;3.85;1.02;;;10.60;99.90;;;;;;6168097;23;20305;-75
2022/09/18 07:01:36;;;;;;;2.67;1.05;;;10.60;99.90;;;;;;6143535;23;20008;-74
2022/09/18 07:04:12;;;;;;;2.60;0.93;;;10.60;99.90;;;;;;6167901;23;20024;-74
2022/09/18 07:06:43;;;;;;;3.38;1.15;;;10.70;99.90;;;;;;6168050;23;20252;-74
2022/09/18 07:09:09;;;;;;;4.75;1.52;;;10.70;99.90;;;;;;6143262;23;20016;-74
2022/09/18 07:11:56;;;;;;;2.70;1.00;;;10.80;99.90;;;;;;6168660;23;20352;-73
2022/09/18 07:14:31;;;;;;;4.32;1.10;;;10.90;99.90;;;;;;6167887;23;20009;-74
2022/09/18 07:17:08;;;;;;;2.78;0.90;;;11.10;99.90;;;;;;6168422;23;20028;-75
2022/09/18 07:19:35;;;;;;;5.03;0.98;;;11.20;99.90;;;;;;6168332;23;20009;-74
2022/09/18 07:22:00;;;;;;;6.65;1.10;;;11.20;99.90;;;;;;6192924;23;20332;-75
2022/09/18 07:24:30;;;;;;;2.60;0.85;;;11.30;99.90;;;;;;6167371;23;20174;-73
2022/09/18 07:26:57;;;;;;;2.72;0.90;;;11.30;99.90;;;;;;6194365;23;20001;-74
2022/09/18 07:29:23;;;;;;;4.28;1.25;;;11.30;99.90;;;;;;6167666;23;20009;-74
2022/09/18 07:31:50;;;;;;;5.55;0.93;;;11.40;99.90;;;;;;6143642;23;20040;-76
2022/09/18 07:34:16;;;;;;;2.67;1.20;;;11.50;99.90;;;;;;6167464;23;20009;-74
2022/09/18 07:36:42;;;;;;;2.63;0.98;;;11.50;99.90;;;;;;6168330;23;20005;-75
2022/09/18 07:39:07;;;;;;;2.65;1.20;;;11.60;99.90;;;;;;6194432;23;20050;-76
2022/09/18 07:41:53;;;;;;;2.60;0.90;;;11.70;99.90;;;;;;6194083;23;19997;-76
2022/09/18 07:44:19;;;;;;;3.78;1.15;;;11.70;99.90;;;;;;6167761;23;20005;-76
2022/09/18 07:46:45;;;;;;;3.40;0.95;;;11.70;99.90;;;;;;6143805;23;20005;-74
2022/09/18 07:49:11;;;;;;;3.65;1.10;;;11.70;99.90;;;;;;6192561;23;20077;-76
2022/09/18 07:51:39;;;;;;;4.30;0.90;;;11.80;99.90;;;;;;6168164;23;20004;-75
2022/09/18 07:54:05;;;;;;;4.60;1.00;;;11.80;99.90;;;;;;6167977;23;20195;-77
2022/09/18 07:56:48;;;;;;;2.92;0.60;;;11.70;99.90;;;;;;6167725;23;20011;-74
2022/09/18 07:59:18;;;;;;;3.20;0.85;;;11.80;99.90;;;;;;6166987;23;20072;-74
2022/09/18 08:01:47;;;;;;;;;;;11.90;99.90;;;;;;6167542;23;20012;-74
2022/09/18 08:04:13;;;;;;;2.92;0.60;;;12.00;99.90;;;;;;6193654;23;20174;-73
2022/09/18 08:06:39;;;;;;;3.03;0.70;;;12.10;99.90;;;;;;6194344;23;20058;-76
2022/09/18 08:09:15;;;;;;;5.28;0.90;;;12.30;99.90;;;;;;6166749;23;20016;-74
2022/09/18 08:12:04;;;;;;;4.40;0.93;;;12.40;99.90;;;;;;6168270;23;20283;-75
2022/09/18 08:14:56;;;;;;;4.25;0.60;;;12.40;99.90;;;;;;6192196;23;20032;-75
2022/09/18 08:17:26;;;;;;;3.83;0.77;;;12.30;99.90;;;;;;6191128;23;20180;-76
2022/09/18 08:20:13;;;;;;;3.30;0.52;;;12.20;99.90;;;;;;6170789;23;20021;-76
2022/09/18 08:22:50;;;;;;;3.92;0.70;;;12.20;99.90;;;;;;6193751;23;20056;-75
2022/09/18 08:25:17;;;;;;;3.72;0.68;;;12.10;99.90;;;;;;6167007;23;20028;-75
2022/09/18 08:27:46;;;;;;;3.00;0.75;;;12.30;99.90;;;;;;6167563;23;20005;-75
2022/09/18 08:30:14;;;;;;;3.75;0.70;;;12.20;99.90;;;;;;6167142;23;20013;-75
2022/09/18 08:32:41;;;;;;;7.30;0.77;;;12.30;99.90;;;;;;6167893;23;20009;-74
2022/09/18 08:35:09;;;;;;;2.80;0.75;;;12.30;99.90;;;;;;6144107;23;20005;-75
2022/09/18 08:37:36;;;;;;;2.42;0.68;;;12.40;99.90;;;;;;6169247;23;20009;-74
2022/09/18 08:40:29;;;;;;;2.83;0.70;;;12.50;99.90;;;;;;6172296;23;20024;-75
2022/09/18 08:43:28;;;;;;;1.75;0.70;;;12.40;99.90;;;;;;6169427;23;20009;-76
2022/09/18 08:46:11;;;;;;;3.63;0.80;;;12.60;99.90;;;;;;6166929;23;20056;-76
2022/09/18 08:48:59;;;;;;;3.80;0.90;;;12.60;99.90;;;;;;6168678;23;20021;-74
2022/09/18 08:51:48;;;;;;;3.22;0.82;;;12.80;99.90;;;;;;6167411;23;20097;-75
2022/09/18 08:54:21;;;;;;;;;;;12.90;99.90;;;;;;6170116;23;20012;-75
2022/09/18 08:57:17;;;;;;;2.80;0.70;;;13.20;99.90;;;;;;6195264;23;19907;-75
2022/09/18 09:00:03;;;;;;;2.20;0.70;;;13.20;99.90;;;;;;6169241;23;20020;-76
2022/09/18 09:02:36;;;;;;;3.47;0.68;;;13.40;99.90;;;;;;6153816;23;20322;-74
2022/09/18 09:05:07;;;;;;;2.58;0.80;;;13.50;99.90;;;;;;6139721;23;20024;-74
2022/09/18 09:07:42;;;;;;;3.65;0.70;;;13.50;99.90;;;;;;6114756;23;20001;-73
2022/09/18 09:10:27;;;;;;;2.38;0.93;;;13.40;99.90;;;;;;6139815;23;20009;-75
2022/09/18 09:13:21;;;;;;;2.33;0.90;;;12.90;99.90;;;;;;6139830;23;20005;-75
2022/09/18 09:16:22;;;;;;;5.70;1.80;;;12.80;99.90;;;;;;6128312;23;20012;-75
2022/09/18 09:18:54;;;;;;;3.35;1.40;;;12.60;99.90;;;;;;6164247;23;20355;-74
2022/09/18 09:21:23;;;;;;;6.45;1.27;;;12.70;99.90;;;;;;6139291;23;20226;-76
2022/09/18 09:24:01;;;;;;;2.72;0.73;;;12.70;99.90;;;;;;6139612;23;20076;-77
2022/09/18 09:26:48;;;;;;;3.08;1.25;;;12.80;99.90;;;;;;6165453;23;20016;-78
2022/09/18 09:29:40;;;;;;;3.00;0.80;;;12.80;99.90;;;;;;6118954;23;20009;-79
2022/09/18 09:32:27;;;;;;;4.13;1.20;;;12.80;99.90;;;;;;6139132;23;20017;-74
2022/09/18 09:35:47;;;;;;;3.40;1.13;;;12.80;99.90;;;;;;6164019;23;20018;-75
2022/09/18 09:38:42;;;;;;;5.07;1.63;;;13.00;99.90;;;;;;6126693;23;20029;-75
2022/09/18 09:41:18;;;;;;;2.45;0.82;;;13.10;99.90;;;;;;6139725;23;20063;-74
2022/09/18 09:43:59;;;;;;;2.25;0.65;;;13.10;99.90;;;;;;6139736;23;20295;-74
2022/09/18 09:46:59;;;;;;;2.75;0.90;;;13.20;99.90;;;;;;6138730;23;20005;-75
2022/09/18 09:49:28;;;;;;;5.00;0.95;;;13.10;99.90;;;;;;6138632;23;20354;-74
2022/09/18 09:52:24;;;;;;;4.00;0.90;;;13.20;99.90;;;;;;6139262;23;20028;-76
2022/09/18 09:55:07;;;;;;;4.03;0.82;;;13.30;99.90;;;;;;6132473;23;20006;-73
2022/09/18 09:57:48;;;;;;;5.22;1.27;;;13.50;99.90;;;;;;6163355;23;20013;-73
2022/09/18 10:00:17;;;;;;;5.28;0.85;;;13.60;99.90;;;;;;6139149;23;20041;-75
2022/09/18 10:03:15;;;;;;;4.00;1.10;;;13.70;99.90;;;;;;6156295;23;20008;-71
2022/09/18 10:06:04;;;;;;;2.85;0.60;;;13.80;99.90;;;;;;6168041;23;20195;-76
2022/09/18 10:08:35;;;;;;;3.22;0.68;;;13.90;99.90;;;;;;6194543;23;20068;-74
2022/09/18 10:11:07;;;;;;;3.03;0.63;;;14.30;99.90;;;;;;6168747;23;20215;-75
2022/09/18 10:13:50;;;;;;;3.85;0.73;;;14.50;99.90;;;;;;6168341;23;20061;-74
2022/09/18 10:16:23;;;;;;;3.25;1.10;;;14.90;99.90;;;;;;6195039;23;20001;-76
2022/09/18 10:18:51;;;;;;;7.65;2.45;;;15.10;99.90;;;;;;6167920;23;20315;-75
2022/09/18 10:21:25;;;;;;;4.28;1.70;;;15.40;99.90;;;;;;6168249;23;20001;-76
2022/09/18 10:23:52;;;;;;;5.70;1.02;;;15.70;99.90;;;;;;6168824;23;20009;-76
2022/09/18 10:26:30;;;;;;;7.78;1.00;;;15.70;99.90;;;;;;6168665;23;20056;-74
2022/09/18 10:28:56;;;;;;;5.95;1.25;;;15.20;99.90;;;;;;6193438;23;20013;-75
2022/09/18 10:31:22;;;;;;;4.95;2.10;;;15.00;99.90;;;;;;6167972;23;20021;-74
2022/09/18 10:33:51;;;;;;;6.05;1.20;;;15.10;99.90;;;;;;6168532;23;20028;-76
2022/09/18 10:36:34;;;;;;;5.05;0.90;;;15.50;99.90;;;;;;6192844;23;20005;-78
2022/09/18 10:39:37;;;;;;;3.22;0.85;;;15.90;97.20;;;;;;6168581;23;20013;-75
2022/09/18 10:42:15;;;;;;;5.95;0.70;;;16.10;97.10;;;;;;6168757;23;20012;-75
2022/09/18 10:44:47;;;;;;;3.65;0.88;;;16.00;96.40;;;;;;6193012;23;20005;-76
2022/09/18 10:47:35;;;;;;;4.97;0.60;;;16.10;95.70;;;;;;6193283;23;20005;-77
2022/09/18 10:50:10;;;;;;;6.72;0.63;;;16.00;95.20;;;;;;6168307;23;20028;-73
2022/09/18 10:52:39;;;;;;;3.20;0.80;;;15.90;94.90;;;;;;6167595;23;20104;-76
2022/09/18 10:55:29;;;;;;;3.40;0.80;;;16.10;95.20;;;;;;6167778;23;20012;-75
2022/09/18 10:58:15;;;;;;;4.05;0.50;;;16.50;93.70;;;;;;6192473;23;20156;-75
2022/09/18 11:00:58;;;;;;;4.43;0.60;;;16.40;93.80;;;;;;6167465;23;20020;-74
2022/09/18 11:03:45;;;;;;;4.72;0.70;;;16.70;93.50;;;;;;6140991;23;20013;-75
2022/09/18 11:06:24;;;;;;;2.83;0.60;;;16.80;93.00;;;;;;6138554;23;20020;-75
2022/09/18 11:08:55;;;;;;;4.30;0.47;;;17.10;92.00;;;;;;6138661;23;20199;-74
2022/09/18 11:11:27;;;;;;;6.55;0.77;;;17.30;91.10;;;;;;6114236;23;20303;-76
2022/09/18 11:14:01;;;;;;;3.72;0.70;;;17.70;90.40;;;;;;6138791;23;20006;-75
2022/09/18 11:16:41;;;;;;;4.32;0.60;;;17.50;89.70;;;;;;6162750;23;20005;-75
2022/09/18 11:19:24;;;;;;;2.65;0.38;;;17.60;89.30;;;;;;6115620;23;20238;-76
2022/09/18 11:21:54;;;;;;;3.38;0.85;;;17.70;88.20;;;;;;6167417;23;20055;-75
2022/09/18 11:24:24;;;;;;;2.40;0.60;;;17.70;88.00;;;;;;6169603;23;20295;-76
2022/09/18 11:26:58;;;;;;;3.10;0.50;;;18.00;86.40;;;;;;6154508;23;20002;-75
2022/09/18 11:29:29;;;;;;;2.00;0.50;;;18.10;84.80;;;;;;6178084;23;20033;-76
2022/09/18 11:32:10;;;;;;;2.60;0.50;;;18.20;83.90;;;;;;6152061;23;20303;-74
2022/09/18 11:34:43;;;;;;;2.70;0.68;;;18.60;83.50;;;;;;6141203;23;20295;-76
2022/09/18 11:37:20;;;;;;;2.85;0.60;;;19.20;81.50;;;;;;6139622;23;20001;-75
2022/09/18 11:39:53;;;;;;;2.85;0.50;;;19.10;80.50;;;;;;6137905;23;20021;-73
2022/09/18 11:42:19;;;;;;;2.50;0.50;;;18.70;81.30;;;;;;6114258;23;20001;-75
2022/09/18 11:44:46;;;;;;;3.65;0.50;;;18.50;82.70;;;;;;6137812;23;19998;-76
2022/09/18 11:47:21;;;;;;;3.35;0.60;;;18.30;81.40;;;;;;6114348;23;20072;-76
2022/09/18 11:50:11;;;;;;;2.78;0.47;;;18.10;81.10;;;;;;6137715;23;20077;-76
2022/09/18 11:52:39;;;;;;;3.88;0.43;;;17.90;82.00;;;;;;6137334;23;20020;-75
2022/09/18 11:55:33;;;;;;;4.40;0.60;;;18.00;81.50;;;;;;6138090;23;20008;-76
2022/09/18 11:58:04;;;;;;;3.20;0.55;;;17.70;82.40;;;;;;6138169;23;20191;-76
2022/09/18 12:00:39;;;;;;;7.45;1.70;;;17.60;82.10;;;;;;6162175;23;20009;-77
2022/09/18 12:03:28;;;;;;;4.05;1.05;;;17.50;83.00;;;;;;6184972;23;20009;-76
2022/09/18 12:06:37;;;;;;;2.90;0.63;;;17.60;81.50;;;;;;6167775;23;19997;-75
2022/09/18 12:09:19;;;;;;;3.75;1.00;;;17.50;80.10;;;;;;6167352;23;20009;-75
2022/09/18 12:11:50;;;;;;;1.73;0.50;;;17.40;79.50;;;;;;6167162;23;20023;-75
2022/09/18 12:14:35;;;;;;;3.10;0.40;;;17.80;79.80;;;;;;6167841;23;20009;-76
2022/09/18 12:17:29;;;;;;;3.95;0.47;;;18.80;76.20;;;;;;6167905;23;20027;-77
2022/09/18 12:20:00;;;;;;;1.95;0.30;;;20.30;73.80;;;;;;6166999;23;20236;-75
2022/09/18 12:22:41;;;;;;;2.15;0.50;;;20.30;72.90;;;;;;6143025;23;20052;-76
2022/09/18 12:25:13;;;;;;;3.75;0.70;;;19.80;73.40;;;;;;6194300;23;20164;-76
2022/09/18 12:28:33;;;;;;;3.60;0.45;;;20.20;73.40;;;;;;6193413;23;20055;-76
2022/09/18 12:31:15;;;;;;;2.00;0.40;;;19.30;74.70;;;;;;6167429;23;20011;-74
2022/09/18 12:34:03;;;;;;;2.95;0.50;;;18.70;76.10;;;;;;6193072;23;19997;-75
2022/09/18 12:36:35;;;;;;;1.30;0.50;;;18.70;77.60;;;;;;6192827;23;20298;-77
2022/09/18 12:39:41;;;;;;;3.72;0.63;;;19.10;76.80;;;;;;6193565;23;20197;-75
2022/09/18 12:42:10;;;;;;;1.98;0.30;;;19.40;74.40;;;;;;6193675;23;19997;-77
2022/09/18 12:44:55;;;;;;;1.52;0.40;;;19.50;72.80;;;;;;6193100;23;20001;-76
2022/09/18 12:47:40;;;;;;;1.73;0.40;;;19.70;72.30;;;;;;6193630;23;20060;-76
2022/09/18 12:50:30;;;;;;;1.40;0.25;;;19.60;69.90;;;;;;6167152;23;20009;-76
2022/09/18 12:53:15;;;;;;;3.33;0.38;;;19.30;71.10;;;;;;6193679;23;19997;-75
2022/09/18 12:56:15;;;;;;;2.88;0.38;;;19.20;71.60;;;;;;6192895;23;20001;-76
2022/09/18 12:59:16;;;;;;;1.83;0.40;;;19.40;73.30;;;;;;6192586;23;20008;-77
2022/09/18 13:01:50;;;;;;;1.10;0.20;;;19.70;71.50;;;;;;6180026;23;20013;-76
2022/09/18 13:04:43;;;;;;;2.28;0.40;;;19.70;71.90;;;;;;6167047;23;20001;-75
2022/09/18 13:07:44;;;;;;;1.08;0.30;;;20.00;71.00;;;;;;6193456;23;20005;-74
2022/09/18 13:10:20;;;;;;;1.60;0.32;;;19.30;71.10;;;;;;6161155;23;20113;-74
2022/09/18 13:12:55;;;;;;;2.25;0.40;;;18.80;72.40;;;;;;6189377;23;20005;-74
2022/09/18 13:15:43;;;;;;;1.88;0.22;;;17.90;73.30;;;;;;6193530;23;19997;-74
2022/09/18 13:18:54;;;;;;;2.42;0.52;;;17.50;74.90;;;;;;6167069;23;20009;-76
2022/09/18 13:21:26;;;;;;;2.10;0.40;;;17.50;75.00;;;;;;6176040;23;20020;-75
2022/09/18 13:23:53;;;;;;;2.13;0.30;;;17.40;75.60;;;;;;6168386;23;19996;-75
2022/09/18 13:26:22;;;;;;;1.23;0.30;;;17.50;76.60;;;;;;6195256;23;20012;-76
2022/09/18 13:28:49;;;;;;;2.60;0.50;;;17.50;76.00;;;;;;6194657;23;20060;-75
2022/09/18 13:31:31;;;;;;;1.67;0.40;;;17.00;76.20;;;;;;6194066;23;20005;-75
2022/09/18 13:34:00;;;;;;;1.40;0.40;;;16.80;77.40;;;;;;6195662;23;19997;-75
2022/09/18 13:36:31;;;;;;;1.88;0.32;;;16.60;78.10;;;;;;6195139;23;20081;-76
2022/09/18 13:39:05;;;;;;;3.33;0.70;;;16.50;78.00;;;;;;6194476;23;20005;-75
2022/09/18 13:41:46;;;;;;;2.25;0.68;;;16.80;77.40;;;;;;6144123;23;20036;-73
2022/09/18 13:44:34;;;;;;;4.20;0.50;;;16.80;77.90;;;;;;6193602;23;20004;-75
2022/09/18 13:47:10;;;;;;;;;;;17.00;78.60;;;;;;6144833;23;20015;-75
2022/09/18 13:49:53;;;;;;;2.55;0.50;;;17.20;77.80;;;;;;6168499;23;20178;-75
2022/09/18 13:52:33;;;;;;;1.63;0.40;;;17.20;76.70;;;;;;6195403;23;20029;-75
2022/09/18 13:55:02;;;;;;;1.00;0.40;;;17.20;77.00;;;;;;6194828;23;20019;-76
2022/09/18 13:57:29;;;;;;;1.13;0.30;;;17.10;77.00;;;;;;6194993;23;20001;-75
2022/09/18 13:59:57;;;;;;;2.83;0.32;;;16.90;77.30;;;;;;6194383;23;20016;-74
2022/09/18 14:02:25;;;;;;;1.85;0.68;;;16.70;77.40;;;;;;6144205;23;20013;-75
2022/09/18 14:04:59;;;;;;;1.98;0.28;;;16.50;78.70;;;;;;6143489;23;20005;-74
2022/09/18 14:07:31;;;;;;;2.53;0.60;;;16.50;79.30;;;;;;6168516;23;20031;-74
2022/09/18 14:09:58;;;;;;;1.10;0.38;;;16.40;80.20;;;;;;6168406;23;20029;-74
2022/09/18 14:12:26;;;;;;;3.13;0.50;;;16.20;80.40;;;;;;6168757;23;20049;-75
2022/09/18 14:15:00;;;;;;;2.30;0.40;;;16.10;81.40;;;;;;6194271;23;20279;-75
2022/09/18 14:17:28;;;;;;;1.98;0.45;;;16.20;80.70;;;;;;6168582;23;20005;-76
2022/09/18 14:20:18;;;;;;;2.40;0.67;;;16.50;80.50;;;;;;6193451;23;20016;-75
2022/09/18 14:22:43;;;;;;;2.63;0.43;;;17.00;77.50;;;;;;6194296;23;20072;-75
2022/09/18 14:25:10;;;;;;;2.25;0.60;;;17.40;77.10;;;;;;6194760;23;19997;-76
2022/09/18 14:27:41;;;;;;;2.25;0.60;;;17.70;76.70;;;;;;6194454;23;20020;-75
2022/09/18 14:30:19;;;;;;;5.22;0.52;;;17.90;75.90;;;;;;6194692;23;20005;-75
2022/09/18 14:32:55;;;;;;;2.63;0.40;;;17.70;76.60;;;;;;6194349;23;20001;-75
2022/09/18 14:35:31;;;;;;;3.20;0.50;;;17.50;76.80;;;;;;6168665;23;20029;-77
2022/09/18 14:37:56;;;;;;;2.75;0.55;;;17.50;77.50;;;;;;6194101;23;20333;-76
2022/09/18 14:40:24;;;;;;;2.45;1.13;;;17.40;77.70;;;;;;6194822;23;20060;-75
2022/09/18 14:42:50;;;;;;;3.40;0.50;;;17.40;77.70;;;;;;6194619;23;20060;-77
2022/09/18 14:45:30;;;;;;;2.10;0.50;;;17.20;77.50;;;;;;6194828;23;20001;-77
2022/09/18 14:47:57;;;;;;;2.55;0.40;;;17.10;77.70;;;;;;6194026;23;20025;-76
2022/09/18 14:50:33;;;;;;;2.70;0.40;;;17.00;77.30;;;;;;6194809;23;20008;-75
2022/09/18 14:53:06;;;;;;;4.55;0.68;;;16.90;77.80;;;;;;6193875;23;20167;-75
2022/09/18 14:55:39;;;;;;;2.35;0.55;;;16.80;78.30;;;;;;6194202;23;20291;-75
2022/09/18 14:58:08;;;;;;;2.53;0.50;;;17.00;79.00;;;;;;6194212;23;20029;-76
2022/09/18 15:00:36;;;;;;;1.73;0.40;;;16.90;78.60;;;;;;6194455;23;20283;-76
2022/09/18 15:03:12;;;;;;;1.77;0.43;;;16.80;79.00;;;;;;6193663;23;20012;-76
2022/09/18 15:05:38;;;;;;;2.97;0.40;;;16.70;79.50;;;;;;6193823;23;20011;-75
2022/09/18 15:08:17;;;;;;;3.85;0.60;;;16.50;80.20;;;;;;6194225;23;20179;-74
2022/09/18 15:10:49;;;;;;;2.60;0.68;;;16.40;80.50;;;;;;6193880;23;20005;-76
2022/09/18 15:13:16;;;;;;;4.65;0.50;;;16.20;81.10;;;;;;6193998;23;20001;-76
2022/09/18 15:15:44;;;;;;;3.47;0.50;;;16.20;81.20;;;;;;6193596;23;20005;-76
2022/09/18 15:18:26;;;;;;;1.63;0.40;;;16.20;80.40;;;;;;6194556;23;20048;-77
2022/09/18 15:20:54;;;;;;;2.30;0.40;;;15.90;80.40;;;;;;6193395;23;20015;-76
2022/09/18 15:23:23;;;;;;;2.10;0.40;;;15.90;80.40;;;;;;6194285;23;19997;-76
2022/09/18 15:25:51;;;;;;;3.47;0.57;;;15.80;80.70;;;;;;6193832;23;20001;-74
2022/09/18 15:28:19;;;;;;;2.88;0.60;;;15.60;81.00;;;;;;6194123;23;20016;-75
2022/09/18 15:30:46;;;;;;;3.20;0.80;;;15.50;81.60;;;;;;6193706;23;20066;-74
2022/09/18 15:33:18;;;;;;;2.63;0.47;;;15.40;82.00;;;;;;6193795;23;20005;-74
2022/09/18 15:35:46;;;;;;;3.55;0.50;;;15.30;82.70;;;;;;6194023;23;19998;-78
2022/09/18 15:38:31;;;;;;;2.47;0.50;;;15.30;82.60;;;;;;6194796;23;20009;-75
2022/09/18 15:40:57;;;;;;;2.25;0.50;;;15.30;82.50;;;;;;6167954;23;20005;-75
2022/09/18 15:43:29;;;;;;;2.95;0.50;;;15.30;82.60;;;;;;6195072;23;20040;-77
2022/09/18 15:46:08;;;;;;;4.10;0.70;;;15.20;83.00;;;;;;6194956;23;20320;-77
2022/09/18 15:48:43;;;;;;;2.60;0.70;;;15.30;83.20;;;;;;6199615;23;20065;-76
2022/09/18 15:51:16;;;;;;;2.58;0.50;;;15.20;83.50;;;;;;6169899;23;20310;-76
2022/09/18 15:54:11;;;;;;;2.60;0.45;;;15.10;83.30;;;;;;6193609;23;20005;-79
2022/09/18 15:57:04;;;;;;;3.55;1.02;;;15.00;83.80;;;;;;6194740;23;20001;-76
2022/09/18 15:59:39;;;;;;;3.08;0.60;;;15.00;84.00;;;;;;6192412;23;20008;-76
2022/09/18 16:02:33;;;;;;;2.03;0.35;;;15.00;83.70;;;;;;6193074;23;20033;-76
2022/09/18 16:05:10;;;;;;;1.92;0.60;;;15.00;83.80;;;;;;6193738;23;19997;-77
2022/09/18 16:07:38;;;;;;;2.03;0.80;;;14.90;84.40;;;;;;6193654;23;20005;-77
2022/09/18 16:10:37;;;;;;;2.28;0.75;;;14.80;84.00;;;;;;6193156;23;20001;-76
2022/09/18 16:13:32;;;;;;;3.25;0.85;;;14.80;84.90;;;;;;6192924;23;20015;-75
2022/09/18 16:16:06;;;;;;;2.33;0.63;;;14.70;85.10;;;;;;6199798;23;20001;-73
2022/09/18 16:18:33;;;;;;;2.60;0.70;;;14.70;85.40;;;;;;6203410;23;20005;-72
2022/09/18 16:21:05;;;;;;;2.67;0.30;;;14.60;85.50;;;;;;6197860;23;19997;-75
2022/09/18 16:23:35;;;;;;;3.55;0.50;;;14.60;85.40;;;;;;6194835;23;20054;-75
2022/09/18 16:26:03;;;;;;;1.73;0.65;;;14.60;85.80;;;;;;6167546;23;20051;-77
2022/09/18 16:28:32;;;;;;;2.83;0.70;;;14.50;85.90;;;;;;6194161;23;20008;-78
2022/09/18 16:30:58;;;;;;;3.60;0.60;;;14.60;85.50;;;;;;6193327;23;20005;-75
2022/09/18 16:33:29;;;;;;;2.63;0.60;;;14.50;85.10;;;;;;6193678;23;19997;-76
2022/09/18 16:36:06;;;;;;;1.70;0.50;;;14.50;85.50;;;;;;6193729;23;20012;-78
2022/09/18 16:38:33;;;;;;;3.20;1.27;;;14.50;85.20;;;;;;6168115;23;19998;-77
2022/09/18 16:40:59;;;;;;;4.03;0.70;;;14.50;85.70;;;;;;6194518;23;20031;-76
2022/09/18 16:43:37;;;;;;;1.58;0.55;;;14.50;85.30;;;;;;6167945;23;20185;-77
2022/09/18 16:46:03;;;;;;;3.80;0.68;;;14.50;85.40;;;;;;6167302;23;20325;-76
2022/09/18 16:48:29;;;;;;;2.35;0.50;;;14.50;85.20;;;;;;6194035;23;20021;-78
2022/09/18 16:50:55;;;;;;;3.08;0.75;;;14.50;84.90;;;;;;6167547;23;20083;-75
2022/09/18 16:53:21;;;;;;;3.72;0.85;;;14.40;85.30;;;;;;6167537;23;20072;-77
2022/09/18 16:55:52;;;;;;;4.45;0.70;;;14.40;85.50;;;;;;6193181;23;20012;-74
2022/09/18 16:58:19;;;;;;;4.57;1.00;;;14.40;85.30;;;;;;6196086;23;20005;-75
2022/09/18 17:00:48;;;;;;;2.13;0.50;;;14.30;85.30;;;;;;6144615;23;20017;-76
2022/09/18 17:03:16;;;;;;;4.25;0.70;;;14.30;85.30;;;;;;6195959;23;20001;-77
2022/09/18 17:05:43;;;;;;;2.13;0.60;;;14.30;85.50;;;;;;6169901;23;20240;-75
2022/09/18 17:08:11;;;;;;;2.17;0.50;;;14.20;85.30;;;;;;6168772;23;20001;-78
2022/09/18 17:10:37;;;;;;;;;;;14.30;85.30;;;;;;6145352;23;19997;-77
2022/09/18 17:13:03;;;;;;;2.33;0.60;;;14.10;85.60;;;;;;6144660;23;19900;-77
2022/09/18 17:15:29;;;;;;;4.40;0.70;;;14.10;86.00;;;;;;6169172;23;20275;-77
2022/09/18 17:17:55;;;;;;;2.83;0.77;;;14.10;86.40;;;;;;6195238;23;20283;-77
2022/09/18 17:20:21;;;;;;;2.30;0.50;;;14.10;86.40;;;;;;6195722;23;20016;-77
2022/09/18 17:22:47;;;;;;;2.70;0.93;;;14.10;86.40;;;;;;6195582;23;20021;-78
2022/09/18 17:25:14;;;;;;;2.83;0.52;;;14.00;86.60;;;;;;6169804;23;20298;-74
2022/09/18 17:27:41;;;;;;;3.28;0.80;;;14.00;87.00;;;;;;6169704;23;20234;-77
2022/09/18 17:30:08;;;;;;;2.33;0.70;;;14.00;86.80;;;;;;6169155;23;20117;-77
2022/09/18 17:32:37;;;;;;;3.05;0.98;;;14.00;86.80;;;;;;6195016;23;20191;-77
2022/09/18 17:35:03;;;;;;;3.97;0.88;;;13.90;87.00;;;;;;6169216;23;20055;-77
2022/09/18 17:37:29;;;;;;;2.17;0.50;;;13.90;87.00;;;;;;6145246;23;20009;-76
2022/09/18 17:39:56;;;;;;;5.18;0.65;;;13.90;87.00;;;;;;6169206;23;20060;-77
2022/09/18 17:42:22;;;;;;;4.18;1.23;;;14.00;87.00;;;;;;6144645;23;20001;-74
2022/09/18 17:44:49;;;;;;;4.50;0.70;;;13.90;87.30;;;;;;6144370;23;20012;-78
2022/09/18 17:47:15;;;;;;;3.28;0.68;;;13.90;87.10;;;;;;6169620;23;20031;-75
2022/09/18 17:49:40;;;;;;;3.60;0.68;;;14.00;87.00;;;;;;6169737;23;20023;-73
2022/09/18 17:52:07;;;;;;;3.45;0.43;;;14.00;87.10;;;;;;6195017;23;20200;-76
2022/09/18 17:54:34;;;;;;;2.22;0.68;;;14.00;86.90;;;;;;6195401;23;20008;-77
2022/09/18 17:57:02;;;;;;;2.08;0.70;;;13.90;87.20;;;;;;6168599;23;20166;-77
2022/09/18 17:59:37;;;;;;;2.92;0.80;;;14.00;87.40;;;;;;6168473;23;20032;-76
2022/09/18 18:02:03;;;;;;;2.60;0.60;;;14.00;87.00;;;;;;6194232;23;20072;-78
2022/09/18 18:04:28;;;;;;;3.10;0.90;;;14.00;86.90;;;;;;6194897;23;20001;-75
2022/09/18 18:06:54;;;;;;;3.75;0.70;;;14.00;87.50;;;;;;6193804;23;20001;-75
2022/09/18 18:09:20;;;;;;;2.83;0.80;;;13.90;87.40;;;;;;6195289;23;20047;-77
2022/09/18 18:11:47;;;;;;;1.98;0.90;;;13.90;87.60;;;;;;6194627;23;20207;-76
2022/09/18 18:14:13;;;;;;;2.50;0.93;;;13.90;88.10;;;;;;6194571;23;20012;-76
2022/09/18 18:16:40;;;;;;;2.88;0.60;;;13.90;87.70;;;;;;6194521;23;20012;-75
2022/09/18 18:19:10;;;;;;;3.17;0.70;;;14.00;88.00;;;;;;6194241;23;20311;-75
2022/09/18 18:21:40;;;;;;;1.63;0.50;;;14.00;87.90;;;;;;6194257;23;19997;-75
2022/09/18 18:24:13;;;;;;;2.85;0.82;;;13.90;88.00;;;;;;6193596;23;20029;-75
2022/09/18 18:26:39;;;;;;;3.90;1.10;;;14.00;88.10;;;;;;6193580;23;20251;-75